createdAt,value
2019-03-04T00:01:01.090Z,49.08
2019-03-04T00:02:04.804Z,46.23
2019-03-04T00:03:08.541Z,56.00
2019-03-04T00:04:12.180Z,51.48
2019-03-04T00:05:15.815Z,49.77
2019-03-04T00:06:19.449Z,49.65
2019-03-04T00:07:23.416Z,45.55
2019-03-04T00:08:27.015Z,49.83
2019-03-04T00:09:30.665Z,47.33
2019-03-04T00:10:34.351Z,50.50
2019-03-04T00:11:37.951Z,55.78
2019-03-04T00:12:41.585Z,45.67
2019-03-04T00:13:45.256Z,46.90
2019-03-04T00:14:48.898Z,45.48
2019-03-04T00:15:52.532Z,46.42
2019-03-04T00:16:56.229Z,56.02
2019-03-04T00:17:59.868Z,53.95
2019-03-04T00:19:03.549Z,48.25
2019-03-04T00:20:08.998Z,48.02
2019-03-04T00:21:12.642Z,47.65
2019-03-04T00:22:16.285Z,52.53
2019-03-04T00:23:19.984Z,54.08
2019-03-04T00:24:23.662Z,55.95
2019-03-04T00:25:27.293Z,56.10
2019-03-04T00:26:30.929Z,51.50
2019-03-04T00:27:34.657Z,50.70
2019-03-04T00:28:38.291Z,51.83
2019-03-04T00:29:41.957Z,47.55
2019-03-04T00:30:45.595Z,45.08
2019-03-04T00:31:49.232Z,52.35
2019-03-04T00:32:53.281Z,49.55
2019-03-04T00:33:56.921Z,47.78
2019-03-04T00:35:00.511Z,44.55
2019-03-04T00:36:04.146Z,50.98
2019-03-04T00:37:07.783Z,52.33
2019-03-04T00:38:11.425Z,50.55
2019-03-04T00:39:14.993Z,52.50
2019-03-04T00:40:18.765Z,44.67
2019-03-04T00:41:22.409Z,47.95
2019-03-04T00:42:26.056Z,44.50
2019-03-04T00:43:29.690Z,43.95
2019-03-04T00:44:33.323Z,45.50
2019-03-04T00:45:37.004Z,44.67
2019-03-04T00:46:40.574Z,38.05
2019-03-04T00:47:44.203Z,37.05
2019-03-04T00:48:47.843Z,32.85
2019-03-04T00:49:51.517Z,32.05
2019-03-04T00:50:55.087Z,29.30
2019-03-04T00:51:58.717Z,31.27
2019-03-04T00:53:02.357Z,29.67
2019-03-04T00:54:06.002Z,29.10
2019-03-04T00:55:10.884Z,31.80
2019-03-04T00:56:14.526Z,32.38
2019-03-04T00:57:18.184Z,32.73
2019-03-04T00:58:21.806Z,36.45
2019-03-04T00:59:25.449Z,34.53
2019-03-04T01:00:29.116Z,34.30
2019-03-04T01:01:32.755Z,36.98
2019-03-04T01:02:36.405Z,42.33
2019-03-04T01:03:40.087Z,42.85
2019-03-04T01:04:43.683Z,39.78
2019-03-04T01:05:47.370Z,37.63
2019-03-04T01:06:51.008Z,35.17
2019-03-04T01:07:54.687Z,37.73
2019-03-04T01:08:58.330Z,35.65
2019-03-04T01:10:01.975Z,36.08
2019-03-04T01:11:06.876Z,30.62
2019-03-04T01:12:10.514Z,28.67
2019-03-04T01:13:14.151Z,32.15
2019-03-04T01:14:17.800Z,28.40
2019-03-04T01:15:22.577Z,27.65
2019-03-04T01:16:26.300Z,24.87
2019-03-04T01:17:29.936Z,32.67
2019-03-04T01:18:33.901Z,28.60
2019-03-04T01:19:37.528Z,27.40
2019-03-04T01:20:41.219Z,33.83
2019-03-04T01:21:44.856Z,36.58
2019-03-04T01:22:48.495Z,39.25
2019-03-04T01:23:52.129Z,34.85
2019-03-04T01:24:55.772Z,34.48
2019-03-04T01:25:59.417Z,27.58
2019-03-04T01:27:03.087Z,29.77
2019-03-04T01:28:06.720Z,23.42
2019-03-04T01:29:10.419Z,26.87
2019-03-04T01:30:22.679Z,27.95
2019-03-04T01:31:26.608Z,34.03
2019-03-04T01:32:30.298Z,35.33
2019-03-04T01:33:33.920Z,45.15
2019-03-04T01:34:37.933Z,48.83
2019-03-04T01:35:41.575Z,53.50
2019-03-04T01:36:45.200Z,48.52
2019-03-04T01:37:49.169Z,46.15
2019-03-04T01:38:52.807Z,53.25
2019-03-04T01:39:56.392Z,48.60
2019-03-04T01:41:00.036Z,45.20
2019-03-04T01:42:03.685Z,36.93
2019-03-04T01:43:07.355Z,30.48
2019-03-04T01:44:11.002Z,27.45
2019-03-04T01:45:16.511Z,28.05
2019-03-04T01:46:20.508Z,24.77
2019-03-04T01:47:24.140Z,30.80
2019-03-04T01:48:27.809Z,30.10
2019-03-04T01:49:31.439Z,33.45
2019-03-04T01:50:35.004Z,27.70
2019-03-04T01:51:38.640Z,31.30
2019-03-04T01:52:42.625Z,34.98
2019-03-04T01:53:46.288Z,30.17
2019-03-04T01:54:49.930Z,32.28
2019-03-04T01:55:53.570Z,34.38
2019-03-04T01:56:57.211Z,34.43
2019-03-04T01:58:00.844Z,30.75
2019-03-04T01:59:04.525Z,31.23
2019-03-04T02:00:16.632Z,28.65
2019-03-04T02:01:20.201Z,24.70
2019-03-04T02:02:23.893Z,28.80
2019-03-04T02:03:27.531Z,24.77
2019-03-04T02:04:31.213Z,31.62
2019-03-04T02:05:34.848Z,25.40
2019-03-04T02:06:38.486Z,30.45
2019-03-04T02:07:42.234Z,23.70
2019-03-04T02:08:45.879Z,23.38
2019-03-04T02:09:49.539Z,23.95
2019-03-04T02:10:53.178Z,25.57
2019-03-04T02:11:56.833Z,24.82
2019-03-04T02:13:00.493Z,24.72
2019-03-04T02:14:04.320Z,27.82
2019-03-04T02:15:11.100Z,25.27
2019-03-04T02:16:14.730Z,25.25
2019-03-04T02:17:18.448Z,27.52
2019-03-04T02:18:22.085Z,24.77
2019-03-04T02:19:25.737Z,28.17
2019-03-04T02:20:29.406Z,24.20
2019-03-04T02:21:33.043Z,23.12
2019-03-04T02:22:36.685Z,24.02
2019-03-04T02:23:40.413Z,23.35
2019-03-04T02:24:44.051Z,28.50
2019-03-04T02:25:50.661Z,22.98
2019-03-04T02:26:54.978Z,22.85
2019-03-04T02:27:58.611Z,24.98
2019-03-04T02:29:02.245Z,26.77
2019-03-04T02:30:17.594Z,28.47
2019-03-04T02:31:21.273Z,24.30
2019-03-04T02:32:24.911Z,24.63
2019-03-04T02:33:29.453Z,32.05
2019-03-04T02:34:33.090Z,25.90
2019-03-04T02:35:36.824Z,22.95
2019-03-04T02:36:40.492Z,25.60
2019-03-04T02:37:44.124Z,26.02
2019-03-04T02:38:47.756Z,24.85
2019-03-04T02:39:51.389Z,25.40
2019-03-04T02:40:57.039Z,27.67
2019-03-04T02:42:00.751Z,23.98
2019-03-04T02:43:04.403Z,26.73
2019-03-04T02:44:08.045Z,23.57
2019-03-04T02:45:14.613Z,26.97
2019-03-04T02:46:18.229Z,26.10
2019-03-04T02:47:22.207Z,29.40
2019-03-04T02:48:25.841Z,30.52
2019-03-04T02:49:29.545Z,34.78
2019-03-04T02:50:33.183Z,27.87
2019-03-04T02:51:36.816Z,26.65
2019-03-04T02:52:40.491Z,30.55
2019-03-04T02:53:44.125Z,31.15
2019-03-04T02:54:47.762Z,26.87
2019-03-04T02:55:51.397Z,25.57
2019-03-04T02:56:55.032Z,27.30
2019-03-04T02:57:58.705Z,34.55
2019-03-04T02:59:02.333Z,31.77
2019-03-04T03:00:08.883Z,31.15
2019-03-04T03:01:12.792Z,33.02
2019-03-04T03:02:16.424Z,33.83
2019-03-04T03:03:20.132Z,34.85
2019-03-04T03:04:23.815Z,34.90
2019-03-04T03:05:27.429Z,35.75
2019-03-04T03:06:31.001Z,31.40
2019-03-04T03:07:34.639Z,30.70
2019-03-04T03:08:38.314Z,39.73
2019-03-04T03:09:41.945Z,29.82
2019-03-04T03:10:45.583Z,32.33
2019-03-04T03:11:49.223Z,29.32
2019-03-04T03:12:53.198Z,31.30
2019-03-04T03:13:56.866Z,30.50
2019-03-04T03:15:00.613Z,31.45
2019-03-04T03:16:04.225Z,33.10
2019-03-04T03:17:07.852Z,28.17
2019-03-04T03:18:11.879Z,25.52
2019-03-04T03:19:15.551Z,30.60
2019-03-04T03:20:19.182Z,31.77
2019-03-04T03:21:22.814Z,29.92
2019-03-04T03:22:26.752Z,29.27
2019-03-04T03:23:30.415Z,26.70
2019-03-04T03:24:34.075Z,27.85
2019-03-04T03:25:37.685Z,26.48
2019-03-04T03:26:41.323Z,30.75
2019-03-04T03:27:44.966Z,23.60
2019-03-04T03:28:48.597Z,29.07
2019-03-04T03:29:52.398Z,25.92
2019-03-04T03:30:55.973Z,29.00
2019-03-04T03:31:59.611Z,29.35
2019-03-04T03:33:03.253Z,27.02
2019-03-04T03:34:07.055Z,28.92
2019-03-04T03:35:11.127Z,28.85
2019-03-04T03:36:15.097Z,28.90
2019-03-04T03:37:18.733Z,31.15
2019-03-04T03:38:22.367Z,31.65
2019-03-04T03:39:26.008Z,30.70
2019-03-04T03:40:29.669Z,28.55
2019-03-04T03:41:33.287Z,30.85
2019-03-04T03:42:37.219Z,28.77
2019-03-04T03:43:40.860Z,29.12
2019-03-04T03:44:44.499Z,29.70
2019-03-04T03:45:48.550Z,30.55
2019-03-04T03:46:52.194Z,33.42
2019-03-04T03:47:56.027Z,31.65
2019-03-04T03:49:00.065Z,28.85
2019-03-04T03:50:05.212Z,28.50
2019-03-04T03:51:08.888Z,32.15
2019-03-04T03:52:12.532Z,30.37
2019-03-04T03:53:16.159Z,27.85
2019-03-04T03:54:19.866Z,29.57
2019-03-04T03:55:23.565Z,28.05
2019-03-04T03:56:27.237Z,26.85
2019-03-04T03:57:30.955Z,26.37
2019-03-04T03:58:34.602Z,30.05
2019-03-04T03:59:38.251Z,28.87
2019-03-04T04:00:41.873Z,28.87
2019-03-04T04:01:45.532Z,29.57
2019-03-04T04:02:49.275Z,31.65
2019-03-04T04:03:53.008Z,32.63
2019-03-04T04:04:56.642Z,30.68
2019-03-04T04:06:00.282Z,29.42
2019-03-04T04:07:03.951Z,29.60
2019-03-04T04:08:07.585Z,31.37
2019-03-04T04:09:11.225Z,27.73
2019-03-04T04:10:16.062Z,29.23
2019-03-04T04:11:19.702Z,30.88
2019-03-04T04:12:23.375Z,32.00
2019-03-04T04:13:27.013Z,27.65
2019-03-04T04:14:30.645Z,28.45
2019-03-04T04:15:34.276Z,29.15
2019-03-04T04:16:38.172Z,31.52
2019-03-04T04:17:41.863Z,38.83
2019-03-04T04:18:45.468Z,32.53
2019-03-04T04:19:49.127Z,33.02
2019-03-04T04:20:52.760Z,36.88
2019-03-04T04:21:56.383Z,35.00
2019-03-04T04:23:00.058Z,31.75
2019-03-04T04:24:04.271Z,32.10
2019-03-04T04:25:09.212Z,33.80
2019-03-04T04:26:22.266Z,46.60
2019-03-04T04:27:25.904Z,51.40
2019-03-04T04:28:30.557Z,44.98
2019-03-04T04:29:35.847Z,39.10
2019-03-04T04:30:39.886Z,36.25
2019-03-04T04:31:44.289Z,32.63
2019-03-04T04:32:47.927Z,32.70
2019-03-04T04:33:51.983Z,32.35
2019-03-04T04:34:55.632Z,34.20
2019-03-04T04:35:59.597Z,35.38
2019-03-04T04:37:03.230Z,39.78
2019-03-04T04:38:06.865Z,38.23
2019-03-04T04:39:12.183Z,44.10
2019-03-04T04:40:15.823Z,31.60
2019-03-04T04:41:19.470Z,42.43
2019-03-04T04:42:23.174Z,35.60
2019-03-04T04:43:26.811Z,42.45
2019-03-04T04:44:30.492Z,35.25
2019-03-04T04:45:34.127Z,34.13
2019-03-04T04:46:46.547Z,39.85
2019-03-04T04:47:50.174Z,33.95
2019-03-04T04:48:53.806Z,38.08
2019-03-04T04:49:58.265Z,36.75
2019-03-04T04:51:01.907Z,38.65
2019-03-04T04:52:05.542Z,31.87
2019-03-04T04:53:09.182Z,32.88
2019-03-04T04:54:14.357Z,35.00
2019-03-04T04:55:18.035Z,28.17
2019-03-04T04:56:21.664Z,30.48
2019-03-04T04:57:25.307Z,27.87
2019-03-04T04:58:28.942Z,31.95
2019-03-04T04:59:32.632Z,30.48
2019-03-04T05:00:36.294Z,26.97
2019-03-04T05:01:39.943Z,30.25
2019-03-04T05:02:43.587Z,29.05
2019-03-04T05:03:47.216Z,43.20
2019-03-04T05:04:50.861Z,29.92
2019-03-04T05:05:54.530Z,31.62
2019-03-04T05:06:58.170Z,31.23
2019-03-04T05:08:01.807Z,30.75
2019-03-04T05:09:06.551Z,33.92
2019-03-04T05:10:18.542Z,27.32
2019-03-04T05:11:22.220Z,30.60
2019-03-04T05:12:25.861Z,29.85
2019-03-04T05:13:29.504Z,40.95
2019-03-04T05:14:33.109Z,52.88
2019-03-04T05:15:36.716Z,46.33
2019-03-04T05:16:40.353Z,36.40
2019-03-04T05:17:43.988Z,36.50
2019-03-04T05:18:48.051Z,35.13
2019-03-04T05:19:51.686Z,38.25
2019-03-04T05:20:55.357Z,37.30
2019-03-04T05:21:58.999Z,35.70
2019-03-04T05:23:02.990Z,35.52
2019-03-04T05:24:06.637Z,39.53
2019-03-04T05:25:10.890Z,36.60
2019-03-04T05:26:14.564Z,39.48
2019-03-04T05:27:18.198Z,38.05
2019-03-04T05:28:21.907Z,38.55
2019-03-04T05:29:25.627Z,77.67
2019-03-04T05:30:29.291Z,81.78
2019-03-04T05:31:32.968Z,78.42
2019-03-04T05:32:36.938Z,104.63
2019-03-04T05:33:40.584Z,109.92
2019-03-04T05:34:44.304Z,135.72
2019-03-04T05:35:47.944Z,139.88
2019-03-04T05:36:52.033Z,134.80
2019-03-04T05:37:55.682Z,124.10
2019-03-04T05:38:59.318Z,129.82
2019-03-04T05:40:03.169Z,119.82
2019-03-04T05:41:06.813Z,77.12
2019-03-04T05:42:10.488Z,64.55
2019-03-04T05:43:14.156Z,65.92
2019-03-04T05:44:17.817Z,70.97
2019-03-04T05:45:23.491Z,70.08
2019-03-04T05:46:27.134Z,64.25
2019-03-04T05:47:30.791Z,54.73
2019-03-04T05:48:34.432Z,52.00
2019-03-04T05:49:38.849Z,44.77
2019-03-04T05:50:43.569Z,38.02
2019-03-04T05:51:51.149Z,36.93
2019-03-04T05:52:54.818Z,35.43
2019-03-04T05:53:58.445Z,38.38
2019-03-04T05:55:02.027Z,39.50
2019-03-04T05:56:05.670Z,40.98
2019-03-04T05:57:09.319Z,38.75
2019-03-04T05:58:12.929Z,40.75
2019-03-04T05:59:19.699Z,35.52
2019-03-04T06:00:26.608Z,35.85
2019-03-04T06:01:30.916Z,41.60
2019-03-04T06:02:34.571Z,33.92
2019-03-04T06:03:38.210Z,33.25
2019-03-04T06:04:41.852Z,34.08
2019-03-04T06:05:45.572Z,30.97
2019-03-04T06:06:51.508Z,36.17
2019-03-04T06:07:59.483Z,36.95
2019-03-04T06:09:03.515Z,33.35
2019-03-04T06:10:09.659Z,31.95
2019-03-04T06:11:13.498Z,41.70
2019-03-04T06:12:17.353Z,38.55
2019-03-04T06:13:20.993Z,40.00
2019-03-04T06:14:24.637Z,40.45
2019-03-04T06:15:28.369Z,35.10
2019-03-04T06:16:32.033Z,35.45
2019-03-04T06:17:35.675Z,40.20
2019-03-04T06:18:39.334Z,59.00
2019-03-04T06:19:44.078Z,51.85
2019-03-04T06:20:47.696Z,40.80
2019-03-04T06:21:51.472Z,33.60
2019-03-04T06:22:55.117Z,33.73
2019-03-04T06:23:58.751Z,36.42
2019-03-04T06:25:02.401Z,36.35
2019-03-04T06:26:06.131Z,37.98
2019-03-04T06:27:09.862Z,38.55
2019-03-04T06:28:13.775Z,42.35
2019-03-04T06:29:17.437Z,38.88
2019-03-04T06:30:26.966Z,36.17
2019-03-04T06:31:31.000Z,40.23
2019-03-04T06:32:34.588Z,43.50
2019-03-04T06:33:38.225Z,38.50
2019-03-04T06:34:41.865Z,40.23
2019-03-04T06:35:45.501Z,43.58
2019-03-04T06:36:49.129Z,40.15
2019-03-04T06:37:52.803Z,40.75
2019-03-04T06:38:56.557Z,41.50
2019-03-04T06:40:00.066Z,53.23
2019-03-04T06:41:03.772Z,51.77
2019-03-04T06:42:07.424Z,59.27
2019-03-04T06:43:14.979Z,59.13
2019-03-04T06:44:19.867Z,60.23
2019-03-04T06:45:23.589Z,59.80
2019-03-04T06:46:27.218Z,51.95
2019-03-04T06:47:30.848Z,55.05
2019-03-04T06:48:34.587Z,55.98
2019-03-04T06:49:38.260Z,56.85
2019-03-04T06:50:48.353Z,58.68
2019-03-04T06:51:51.985Z,57.15
2019-03-04T06:52:56.638Z,50.90
2019-03-04T06:54:12.503Z,50.28
2019-03-04T06:55:22.225Z,47.88
2019-03-04T06:56:34.456Z,44.85
2019-03-04T06:57:38.133Z,42.80
2019-03-04T06:58:50.421Z,46.10
2019-03-04T06:59:59.733Z,40.90
2019-03-04T07:01:06.778Z,46.45
2019-03-04T07:02:19.041Z,47.40
2019-03-04T07:03:22.776Z,49.18
2019-03-04T07:04:50.634Z,46.20
2019-03-04T07:05:54.912Z,35.80
2019-03-04T07:06:59.554Z,38.30
2019-03-04T07:08:03.191Z,38.02
2019-03-04T07:09:09.051Z,39.60
2019-03-04T07:10:13.489Z,41.90
2019-03-04T07:11:17.206Z,42.50
2019-03-04T07:12:22.341Z,47.62
2019-03-04T07:13:26.027Z,50.05
2019-03-04T07:14:29.725Z,45.08
2019-03-04T07:15:33.376Z,41.75
2019-03-04T07:16:37.084Z,47.38
2019-03-04T07:17:40.764Z,41.37
2019-03-04T07:18:44.399Z,47.15
2019-03-04T07:19:51.325Z,48.20
2019-03-04T07:20:55.075Z,39.35
2019-03-04T07:21:58.800Z,46.08
2019-03-04T07:23:02.442Z,39.18
2019-03-04T07:24:06.086Z,41.30
2019-03-04T07:25:10.613Z,40.70
2019-03-04T07:26:14.265Z,38.53
2019-03-04T07:27:17.949Z,42.65
2019-03-04T07:28:21.591Z,42.45
2019-03-04T07:29:25.303Z,42.05
2019-03-04T07:30:28.950Z,51.40
2019-03-04T07:31:32.589Z,38.08
2019-03-04T07:32:36.294Z,40.03
2019-03-04T07:33:39.952Z,34.63
2019-03-04T07:34:43.672Z,38.10
2019-03-04T07:35:47.313Z,37.42
2019-03-04T07:36:51.032Z,41.15
2019-03-04T07:38:09.454Z,36.80
2019-03-04T07:39:14.014Z,37.17
2019-03-04T07:40:22.275Z,34.83
2019-03-04T07:41:29.177Z,36.00
2019-03-04T07:42:32.783Z,30.80
2019-03-04T07:43:36.392Z,28.20
2019-03-04T07:44:39.939Z,32.10
2019-03-04T07:45:43.583Z,27.87
2019-03-04T07:46:47.217Z,24.43
2019-03-04T07:47:50.879Z,25.00
2019-03-04T07:48:54.540Z,23.87
2019-03-04T07:49:58.550Z,27.67
2019-03-04T07:51:11.055Z,29.80
2019-03-04T07:52:14.797Z,27.57
2019-03-04T07:53:19.195Z,26.23
2019-03-04T07:54:29.022Z,35.90
2019-03-04T07:55:34.290Z,40.00
2019-03-04T07:56:39.976Z,34.13
2019-03-04T07:57:43.672Z,35.83
2019-03-04T07:58:47.226Z,33.03
2019-03-04T07:59:50.894Z,35.87
2019-03-04T08:00:54.537Z,31.20
2019-03-04T08:01:58.577Z,28.40
2019-03-04T08:03:02.388Z,30.97
2019-03-04T08:04:06.024Z,29.00
2019-03-04T08:05:11.166Z,29.00
2019-03-04T08:06:14.840Z,26.10
2019-03-04T08:07:39.236Z,26.77
2019-03-04T08:09:02.134Z,26.77
2019-03-04T08:10:17.756Z,25.87
2019-03-04T08:11:42.743Z,27.93
2019-03-04T08:12:49.406Z,25.23
2019-03-04T08:14:04.910Z,33.00
2019-03-04T08:15:09.742Z,25.60
2019-03-04T08:16:13.376Z,23.30
2019-03-04T08:17:17.048Z,27.10
2019-03-04T08:18:20.697Z,26.57
2019-03-04T08:19:24.324Z,25.80
2019-03-04T08:20:27.982Z,29.93
2019-03-04T08:21:31.676Z,26.57
2019-03-04T08:22:35.345Z,28.27
2019-03-04T08:23:39.022Z,24.87
2019-03-04T08:24:42.647Z,28.60
2019-03-04T08:25:49.078Z,20.37
2019-03-04T08:26:52.799Z,20.97
2019-03-04T08:27:58.917Z,21.30
2019-03-04T08:29:04.690Z,21.43
2019-03-04T08:30:16.889Z,22.00
2019-03-04T08:31:20.531Z,21.53
2019-03-04T08:32:24.539Z,20.83
2019-03-04T08:33:28.309Z,26.33
2019-03-04T08:34:32.331Z,18.37
2019-03-04T08:35:36.070Z,25.00
2019-03-04T08:36:42.575Z,19.70
2019-03-04T08:37:47.957Z,20.33
2019-03-04T08:38:51.603Z,24.53
2019-03-04T08:39:58.252Z,19.20
2019-03-04T08:41:03.732Z,24.90
2019-03-04T08:42:07.324Z,19.33
2019-03-04T08:43:11.307Z,50.50
2019-03-04T08:44:15.057Z,25.07
2019-03-04T08:45:21.421Z,23.70
2019-03-04T08:46:25.102Z,27.80
2019-03-04T08:47:29.083Z,23.50
2019-03-04T08:48:35.592Z,23.80
2019-03-04T08:49:39.606Z,20.33
2019-03-04T08:50:43.242Z,17.33
2019-03-04T08:51:46.873Z,19.80
2019-03-04T08:52:50.509Z,20.17
2019-03-04T08:53:54.159Z,19.57
2019-03-04T08:54:58.173Z,27.80
2019-03-04T08:56:01.834Z,25.60
2019-03-04T08:57:05.507Z,23.83
2019-03-04T08:58:09.191Z,23.83
2019-03-04T08:59:12.835Z,26.43
2019-03-04T09:00:25.766Z,37.83
2019-03-04T09:01:31.190Z,29.90
2019-03-04T09:02:35.193Z,32.20
2019-03-04T09:03:38.825Z,20.77
2019-03-04T09:04:42.456Z,22.43
2019-03-04T09:05:46.229Z,25.30
2019-03-04T09:06:50.300Z,26.20
2019-03-04T09:07:53.939Z,26.50
2019-03-04T09:08:57.638Z,23.13
2019-03-04T09:10:01.266Z,23.03
2019-03-04T09:11:05.123Z,25.70
2019-03-04T09:12:08.757Z,26.67
2019-03-04T09:13:12.403Z,22.93
2019-03-04T09:14:16.163Z,21.00
2019-03-04T09:15:21.548Z,18.17
2019-03-04T09:16:25.330Z,19.57
2019-03-04T09:17:28.913Z,21.40
2019-03-04T09:18:32.596Z,21.73
2019-03-04T09:19:36.334Z,17.53
2019-03-04T09:20:39.969Z,22.70
2019-03-04T09:21:43.613Z,19.10
2019-03-04T09:22:47.358Z,19.20
2019-03-04T09:23:50.998Z,21.07
2019-03-04T09:24:54.665Z,20.33
2019-03-04T09:26:07.156Z,22.97
2019-03-04T09:27:10.797Z,21.90
2019-03-04T09:28:14.525Z,24.53
2019-03-04T09:29:18.180Z,22.27
2019-03-04T09:30:21.901Z,25.73
2019-03-04T09:31:25.553Z,25.47
2019-03-04T09:32:29.282Z,18.10
2019-03-04T09:33:32.918Z,18.17
2019-03-04T09:34:36.568Z,18.00
2019-03-04T09:35:40.242Z,18.80
2019-03-04T09:36:43.891Z,23.00
2019-03-04T09:37:47.526Z,24.13
2019-03-04T09:38:51.192Z,20.47
2019-03-04T09:39:54.847Z,22.33
2019-03-04T09:40:58.523Z,21.73
2019-03-04T09:42:03.809Z,20.73
2019-03-04T09:43:07.964Z,21.27
2019-03-04T09:44:11.603Z,19.23
2019-03-04T09:45:16.644Z,19.67
2019-03-04T09:46:21.954Z,20.27
2019-03-04T09:47:26.026Z,25.30
2019-03-04T09:48:29.644Z,24.30
2019-03-04T09:49:33.290Z,31.20
2019-03-04T09:50:41.528Z,20.27
2019-03-04T09:51:45.182Z,17.70
2019-03-04T09:53:00.403Z,24.07
2019-03-04T09:54:04.261Z,12.43
2019-03-04T09:55:09.791Z,12.80
2019-03-04T09:56:15.267Z,20.60
2019-03-04T09:57:20.581Z,86.73
2019-03-04T09:58:24.234Z,42.87
2019-03-04T09:59:35.374Z,16.17
2019-03-04T10:00:41.917Z,20.10
2019-03-04T10:01:48.966Z,14.70
2019-03-04T10:03:13.372Z,14.43
2019-03-04T10:04:35.298Z,10.47
2019-03-04T10:05:57.009Z,31.47
2019-03-04T10:07:18.667Z,12.87
2019-03-04T10:08:32.534Z,11.37
2019-03-04T10:09:36.696Z,12.63
2019-03-04T10:11:11.934Z,11.57
2019-03-04T10:12:30.135Z,13.13
2019-03-04T10:13:54.746Z,14.53
2019-03-04T10:15:08.484Z,13.90
2019-03-04T10:16:18.875Z,12.97
2019-03-04T10:17:40.505Z,14.00
2019-03-04T10:19:06.603Z,11.50
2019-03-04T10:20:25.344Z,15.57
2019-03-04T10:21:43.512Z,14.00
2019-03-04T10:23:04.578Z,12.20
2019-03-04T10:24:33.772Z,14.90
2019-03-04T10:25:48.754Z,14.13
2019-03-04T10:27:07.323Z,14.13
2019-03-04T10:28:30.286Z,11.03
2019-03-04T10:29:53.279Z,11.23
2019-03-04T10:31:27.006Z,14.53
2019-03-04T10:33:05.508Z,12.37
2019-03-04T10:34:23.915Z,13.23
2019-03-04T10:35:30.542Z,16.50
2019-03-04T10:36:55.076Z,10.70
2019-03-04T10:38:04.350Z,12.10
2019-03-04T10:39:27.337Z,11.50
2019-03-04T10:40:39.644Z,13.57
2019-03-04T10:41:58.417Z,15.77
2019-03-04T10:43:16.575Z,11.07
2019-03-04T10:44:44.222Z,11.23
2019-03-04T10:45:55.715Z,12.80
2019-03-04T10:46:59.619Z,21.97
2019-03-04T10:48:03.331Z,20.07
2019-03-04T10:49:06.970Z,15.80
2019-03-04T10:50:11.482Z,11.23
2019-03-04T10:51:15.157Z,10.20
2019-03-04T10:52:18.798Z,8.47
2019-03-04T10:53:22.451Z,6.73
2019-03-04T10:54:26.081Z,7.22
2019-03-04T10:55:41.653Z,9.45
2019-03-04T10:56:41.602Z,8.35
2019-03-04T10:57:43.876Z,10.07
2019-03-04T10:58:47.528Z,11.23
2019-03-04T10:59:52.643Z,11.07
2019-03-04T11:00:56.283Z,6.03
2019-03-04T11:01:59.954Z,7.75
2019-03-04T11:03:03.588Z,8.95
2019-03-04T11:04:07.325Z,8.35
2019-03-04T11:05:15.603Z,7.60
2019-03-04T11:06:19.304Z,6.42
2019-03-04T11:07:22.975Z,5.85
2019-03-04T11:08:26.604Z,8.70
2019-03-04T11:09:30.616Z,5.62
2019-03-04T11:10:34.247Z,8.08
2019-03-04T11:11:40.311Z,9.63
2019-03-04T11:12:44.050Z,6.58
2019-03-04T11:13:47.608Z,9.38
2019-03-04T11:14:51.231Z,7.97
2019-03-04T11:15:54.948Z,7.35
2019-03-04T11:17:01.557Z,7.22
2019-03-04T11:18:06.798Z,9.13
2019-03-04T11:19:10.484Z,7.50
2019-03-04T11:20:14.469Z,6.10
2019-03-04T11:21:24.162Z,7.78
2019-03-04T11:22:23.574Z,8.60
2019-03-04T11:23:28.131Z,7.95
2019-03-04T11:24:31.761Z,7.25
2019-03-04T11:25:35.447Z,6.20
2019-03-04T11:26:39.251Z,5.97
2019-03-04T11:27:43.087Z,8.18
2019-03-04T11:28:46.787Z,24.87
2019-03-04T11:29:50.421Z,12.45
2019-03-04T11:30:54.127Z,8.03
2019-03-04T11:31:57.877Z,10.18
2019-03-04T11:33:01.529Z,10.82
2019-03-04T11:34:05.230Z,15.90
2019-03-04T11:35:11.782Z,17.48
2019-03-04T11:36:15.409Z,8.13
2019-03-04T11:37:19.107Z,8.33
2019-03-04T11:38:33.655Z,9.10
2019-03-04T11:39:44.910Z,6.25
2019-03-04T11:40:50.220Z,8.98
2019-03-04T11:41:53.872Z,9.55
2019-03-04T11:42:57.628Z,6.80
2019-03-04T11:44:05.124Z,7.83
2019-03-04T11:45:12.051Z,5.62
2019-03-04T11:46:16.553Z,6.35
2019-03-04T11:47:21.854Z,10.58
2019-03-04T11:48:25.530Z,7.90
2019-03-04T11:49:29.158Z,8.20
2019-03-04T11:50:34.463Z,7.75
2019-03-04T11:51:39.563Z,7.37
2019-03-04T11:52:43.473Z,5.97
2019-03-04T11:53:47.100Z,5.95
2019-03-04T11:54:53.413Z,5.33
2019-03-04T11:55:57.266Z,8.45
2019-03-04T11:57:02.355Z,9.00
2019-03-04T11:58:06.111Z,7.08
2019-03-04T11:59:11.235Z,6.45
2019-03-04T12:00:25.229Z,5.65
2019-03-04T12:01:38.572Z,6.80
2019-03-04T12:02:42.384Z,7.22
2019-03-04T12:03:46.094Z,6.37
2019-03-04T12:04:49.790Z,7.87
2019-03-04T12:05:53.496Z,8.18
2019-03-04T12:07:01.880Z,6.85
2019-03-04T12:08:05.528Z,5.58
2019-03-04T12:09:12.404Z,7.67
2019-03-04T12:10:17.494Z,7.60
2019-03-04T12:11:21.510Z,5.08
2019-03-04T12:12:25.189Z,11.50
2019-03-04T12:13:29.243Z,8.45
2019-03-04T12:14:32.876Z,9.15
2019-03-04T12:15:37.276Z,7.17
2019-03-04T12:16:40.939Z,9.40
2019-03-04T12:17:45.002Z,8.70
2019-03-04T12:18:50.681Z,8.23
2019-03-04T12:19:54.239Z,6.45
2019-03-04T12:20:58.234Z,8.15
2019-03-04T12:22:01.872Z,5.75
2019-03-04T12:23:05.530Z,6.05
2019-03-04T12:24:09.159Z,4.85
2019-03-04T12:25:20.349Z,7.30
2019-03-04T12:26:26.483Z,7.20
2019-03-04T12:27:30.120Z,8.25
2019-03-04T12:28:33.794Z,15.13
2019-03-04T12:29:37.719Z,7.62
2019-03-04T12:30:41.358Z,9.08
2019-03-04T12:31:46.556Z,8.08
2019-03-04T12:32:51.099Z,6.90
2019-03-04T12:33:54.753Z,10.90
2019-03-04T12:34:58.386Z,6.55
2019-03-04T12:36:02.019Z,5.12
2019-03-04T12:37:06.047Z,5.33
2019-03-04T12:38:09.752Z,4.67
2019-03-04T12:39:13.717Z,9.58
2019-03-04T12:40:18.660Z,4.37
2019-03-04T12:41:22.355Z,4.10
2019-03-04T12:42:25.981Z,6.10
2019-03-04T12:43:29.654Z,4.97
2019-03-04T12:44:33.318Z,5.83
2019-03-04T12:45:36.957Z,5.25
2019-03-04T12:46:40.597Z,4.62
2019-03-04T12:47:44.646Z,5.78
2019-03-04T12:48:48.308Z,8.15
2019-03-04T12:49:51.965Z,6.47
2019-03-04T12:50:55.602Z,4.58
2019-03-04T12:51:59.220Z,5.80
2019-03-04T12:53:02.973Z,7.33
2019-03-04T12:54:06.713Z,4.28
2019-03-04T12:55:11.487Z,6.92
2019-03-04T12:56:15.124Z,8.43
2019-03-04T12:57:18.759Z,4.53
2019-03-04T12:58:22.406Z,6.33
2019-03-04T12:59:25.958Z,5.45
2019-03-04T13:00:34.179Z,3.50
2019-03-04T13:01:37.810Z,6.20
2019-03-04T13:02:41.828Z,13.25
2019-03-04T13:03:48.311Z,15.25
2019-03-04T13:04:51.938Z,6.20
2019-03-04T13:05:55.599Z,4.45
2019-03-04T13:06:59.292Z,4.80
2019-03-04T13:08:02.995Z,5.08
2019-03-04T13:09:14.057Z,6.35
2019-03-04T13:10:16.661Z,5.20
2019-03-04T13:11:21.773Z,4.25
2019-03-04T13:12:25.403Z,5.55
2019-03-04T13:13:34.845Z,6.92
2019-03-04T13:14:38.474Z,4.95
2019-03-04T13:15:42.112Z,6.30
2019-03-04T13:16:45.791Z,5.10
2019-03-04T13:17:49.547Z,3.98
2019-03-04T13:18:54.199Z,5.83
2019-03-04T13:19:57.779Z,5.67
2019-03-04T13:21:04.532Z,5.83
2019-03-04T13:22:08.949Z,8.90
2019-03-04T13:23:12.756Z,4.72
2019-03-04T13:24:16.392Z,4.80
2019-03-04T13:25:22.191Z,6.65
2019-03-04T13:26:28.657Z,7.20
2019-03-04T13:27:32.362Z,5.45
2019-03-04T13:28:41.745Z,6.08
2019-03-04T13:29:45.293Z,4.33
2019-03-04T13:30:48.999Z,4.17
2019-03-04T13:31:52.977Z,5.58
2019-03-04T13:32:56.713Z,5.75
2019-03-04T13:34:01.925Z,6.40
2019-03-04T13:35:11.261Z,5.08
2019-03-04T13:36:14.938Z,5.50
2019-03-04T13:37:20.016Z,6.53
2019-03-04T13:38:23.863Z,3.58
2019-03-04T13:39:27.499Z,4.28
2019-03-04T13:40:32.031Z,3.75
2019-03-04T13:41:35.954Z,4.45
2019-03-04T13:42:39.590Z,4.72
2019-03-04T13:43:43.272Z,6.35
2019-03-04T13:45:58.624Z,5.45
2019-03-04T13:47:02.269Z,4.30
2019-03-04T13:48:06.027Z,6.40
2019-03-04T13:49:09.690Z,5.12
2019-03-04T13:50:18.736Z,5.83
2019-03-04T13:51:22.435Z,5.47
2019-03-04T13:52:26.584Z,5.65
2019-03-04T13:53:31.171Z,4.65
2019-03-04T13:54:34.881Z,4.00
2019-03-04T13:55:38.894Z,4.45
2019-03-04T13:56:42.533Z,8.00
2019-03-04T13:57:46.358Z,5.75
2019-03-04T13:58:49.988Z,5.87
2019-03-04T13:59:53.661Z,4.67
2019-03-04T14:00:57.289Z,6.28
2019-03-04T14:02:01.259Z,4.37
2019-03-04T14:03:05.087Z,3.95
2019-03-04T14:04:08.729Z,6.28
2019-03-04T14:05:14.500Z,5.75
2019-03-04T14:06:19.864Z,4.05